如何用浏览器中的"另存为"存储<iframe></iframe>引用其他ASP程序查询的结果

cxiaohua 2003-12-23 01:56:03
我做了个小程序试图用<iframe></iframe>引用其他兄弟单位ASP程序,具体
样式如下 <iframe width=950 height=1000 marginwidth=0 marginheight=0 hspace=0 vspace=0 frameborder=0 scrolling=no src=qxzl1.asp?xhz0=<%=session("qf")%>&xhz1=<%=session("dd")%>>
</iframe>
也得到了查询结果生成的结果在<iframe></iframe>但选择"另存为"存的网络页面
却为空.
qxzl1.asp原始代码为:
/head><body bgcolor="#FFFeF7" text="#000000" onbeforeprint="beforeprint()" onafterprint="afterprint()">
<form ACTION="http://192.3.1.231/hx/empty.asp" NAME="select" METHOD="POST" Target="_main" id=idf>
<table align="center" border="0" cellpadding="0" cellspacing="0" width="518" height="23">
<tr>
<td width="63" calss=body8pt height="23"><font size="2"><b>起飞机场</b></font></td>
<td width="116" calss=body8pt height="23"><input type="text" name="station" size="12" value=<%=session("xhz0")%>>
</td>
<td width="65" calss=body8pt height="23"><font size="2"><b>降落机场</b></font></td>
<td width="118" calss=body8pt height="23"><input type="text" name="hz" size="12" value=<%=session("xhz1")%>>
</td>
<td width="65" calss=body8pt height="23">
<input type="checkbox" name="BJC" value="ON" checked>
<font size="2"><b> 备降</b></font></td>
<td width="79" calss=body8pt height="23"><font size="2"><b>
<input type="submit" value=" 查 询 " id=idc name="Bcheck" style="width:60px">
</b></font></td>
</tr>
<tr>
<input TYPE="HIDDEN" NAME="hz1" VALUE="ZSSS">
</tr>
</table>
</form>

</form>
<script>
document.idf.idc.click();
</script>
</body>
____________________________
http://192.3.1.231/hx/empty.asp是兄弟单位的程序,查询出来的结果在
______________________
<html>
<head>
<title>航线的报文查询结果</title>
<meta http-equiv="Content-Type" content="text/html; charset=gb2312">
</head>
<body bgcolor="#FFFeF7">
<center><font color=#0033CC size=6 >您需要ZSOF--ZSTX航线的报文资料</font></center><br><center><font color=#0033CC>本资料由华东空管局气象中心提供</font></center><br><center><font color=#0033CC>资料提供时间(北京时间)为:2003年12月23日9时58分</font></center><br><br><hr><left><font color=#0033CC><br>起飞机场的报文资料:</font></left><br><br><hr>FCCI34 ZSOF 230121<br>
ZSOF 230121Z 230312 20003MPS 2400 BR SKC BECMG 0304 3500 HZ=<hr>SACI34 ZSOF 230200
<br>
ZSOF 230200Z 00000MPS 2500 R32/1400N HZ SKC 10/02 Q1023
<br>
NOSIG=<hr><left><font color=#0033CC><br>降落机场的报文资料:</font></left><br><br><hr>FCCI64 ZSTX 230115<br>
ZSTX 230115Z 230312 03003MPS CAVOK=<hr>SACI64 ZSTX 230200
<br>
ZSTX 230200Z 00000MPS 7000 SKC 10/03 Q1023 NOSIG=<hr><left><font color=#0033CC><br>备降机场的报文资料:</font></left><br><br><hr>FCCI34 ZSHC 230132<br>
ZSHC 230132Z 230312 27003MPS 1600 BR SCT025=<hr>SACI34 ZSHC 230200
<br>
ZSHC 230200Z VRB02MPS 1600 R07/1400N HZ NSC 10/01 Q1023 NOSIG=<hr>FCCI34 ZSOF 230121<br>
ZSOF 230121Z 230312 20003MPS 2400 BR SKC BECMG 0304 3500 HZ=<hr>SACI34 ZSOF 230200
<br>
ZSOF 230200Z 00000MPS 2500 R32/1400N HZ SKC 10/02 Q1023
<br>
NOSIG=<hr>FCCI34 ZSSS 230135<br>
ZSSS 230135Z 230312 22004MPS 3500 BR SKC=<hr>SACI34 ZSSS 230200
<br>
ZSSS 230200Z VRB01MPS 2000 HZ SKC 12/M03 Q1023 NOSIG=<hr>
</body>
</html>
_______________________________
在<iframe></iframe>中请大师们为小弟给点解决方案!!!!
但选择另存为却存的为空的,不知道为什么!!!
...全文
86 点赞 收藏 回复
写回复
回复
切换为时间正序
请发表友善的回复…
发表回复

还没有回复,快来抢沙发~

发动态
发帖子
CSS
创建于2007-09-28

5.9w+

社区成员

层叠样式表(英文全称:Cascading Style Sheets)是一种用来表现HTML(标准通用标记语言的一个应用)或XML(标准通用标记语言的一个子集)等文件样式的计算机语言。
申请成为版主
社区公告
暂无公告